createdAt,value
2018-06-25T00:00:18.313Z,75.80
2018-06-25T00:05:12.920Z,76.90
2018-06-25T00:10:07.464Z,76.90
2018-06-25T00:15:01.947Z,77.30
2018-06-25T00:19:56.460Z,77.80
2018-06-25T00:24:50.885Z,76.90
2018-06-25T00:29:45.389Z,77.30
2018-06-25T00:34:39.925Z,77.20
2018-06-25T00:39:34.575Z,77.40
2018-06-25T00:44:29.085Z,77.50
2018-06-25T00:49:23.579Z,77.10
2018-06-25T00:54:18.110Z,76.80
2018-06-25T00:59:29.314Z,76.60
2018-06-25T01:04:23.828Z,76.40
2018-06-25T01:09:18.329Z,75.80
2018-06-25T01:14:12.833Z,75.80
2018-06-25T01:19:07.454Z,76.50
2018-06-25T01:24:02.389Z,77.60
2018-06-25T01:28:56.850Z,79.10
2018-06-25T01:33:51.268Z,81.00
2018-06-25T01:38:45.736Z,83.00
2018-06-25T01:43:40.297Z,82.10
2018-06-25T01:48:34.858Z,83.30
2018-06-25T01:53:29.274Z,83.60
2018-06-25T01:58:23.760Z,84.20
2018-06-25T02:03:18.212Z,83.10
2018-06-25T02:08:12.784Z,85.40
2018-06-25T02:13:08.100Z,85.10
2018-06-25T02:18:02.616Z,84.70
2018-06-25T02:22:57.115Z,86.80
2018-06-25T02:27:51.625Z,87.40
2018-06-25T02:32:46.105Z,88.70
2018-06-25T02:37:40.632Z,89.50
2018-06-25T02:42:35.145Z,86.90
2018-06-25T02:47:29.708Z,87.00
2018-06-25T02:52:24.444Z,86.30
2018-06-25T02:57:18.950Z,85.80
2018-06-25T03:02:13.440Z,85.80
2018-06-25T03:07:07.937Z,85.50
2018-06-25T03:12:02.527Z,85.30
2018-06-25T03:17:09.174Z,86.30
2018-06-25T03:22:03.939Z,86.70
2018-06-25T03:26:58.529Z,86.70
2018-06-25T03:31:53.013Z,86.80
2018-06-25T03:36:47.599Z,87.10
2018-06-25T03:41:42.180Z,87.00
2018-06-25T03:46:36.689Z,86.60
2018-06-25T03:51:31.224Z,87.40
2018-06-25T03:56:26.398Z,87.80
2018-06-25T04:02:50.370Z,88.30
2018-06-25T04:07:44.879Z,89.30
2018-06-25T04:12:39.450Z,90.00
2018-06-25T04:17:33.924Z,90.30
2018-06-25T04:27:22.783Z,90.20
2018-06-25T04:32:17.248Z,90.10
2018-06-25T04:42:06.079Z,90.50
2018-06-25T04:47:00.584Z,90.30
2018-06-25T04:51:55.072Z,90.40
2018-06-25T04:56:49.568Z,90.60
2018-06-25T05:01:44.041Z,90.90
2018-06-25T05:06:38.620Z,91.20
2018-06-25T05:11:33.137Z,91.00
2018-06-25T05:16:27.688Z,90.90
2018-06-25T05:21:22.213Z,91.20
2018-06-25T05:26:16.885Z,90.90
2018-06-25T05:31:11.441Z,90.10
2018-06-25T05:36:06.142Z,88.40
2018-06-25T05:41:00.580Z,89.30
2018-06-25T05:45:55.060Z,88.20
2018-06-25T05:50:49.464Z,85.10
2018-06-25T05:55:44.281Z,87.70
2018-06-25T06:00:38.708Z,89.00
2018-06-25T06:05:33.405Z,88.20
2018-06-25T06:10:27.976Z,91.60
2018-06-25T06:15:22.533Z,93.70
2018-06-25T06:20:17.031Z,95.20
2018-06-25T06:25:11.310Z,96.20
2018-06-25T06:30:06.003Z,95.90
2018-06-25T06:35:00.513Z,95.50
2018-06-25T06:39:55.116Z,95.00
2018-06-25T06:44:49.591Z,94.30
2018-06-25T06:49:44.232Z,94.00
2018-06-25T06:54:42.651Z,93.10
2018-06-25T06:59:40.285Z,92.10
2018-06-25T07:04:37.023Z,91.40
2018-06-25T07:09:31.540Z,91.00
2018-06-25T07:14:26.078Z,89.50
2018-06-25T07:20:52.349Z,87.80
2018-06-25T07:25:47.795Z,87.90
2018-06-25T07:30:42.421Z,86.40
2018-06-25T07:35:37.032Z,84.10
2018-06-25T07:40:32.174Z,84.80
2018-06-25T07:45:27.054Z,85.30
2018-06-25T07:50:22.352Z,84.00
2018-06-25T07:55:17.888Z,79.90
2018-06-25T08:00:12.686Z,78.40
2018-06-25T08:05:07.330Z,75.50
2018-06-25T08:10:12.122Z,71.50
2018-06-25T08:15:06.920Z,68.50
2018-06-25T08:20:01.741Z,70.40
2018-06-25T08:24:58.040Z,70.40
2018-06-25T08:29:52.895Z,72.00
2018-06-25T08:34:47.581Z,70.80
2018-06-25T08:39:42.158Z,71.80
2018-06-25T08:44:36.666Z,74.60
2018-06-25T08:49:31.565Z,78.20
2018-06-25T08:54:26.965Z,81.30
2018-06-25T08:59:21.730Z,82.30
2018-06-25T09:04:16.327Z,84.60
2018-06-25T09:09:13.265Z,82.60
2018-06-25T09:14:08.626Z,83.00
2018-06-25T09:19:03.730Z,80.20
2018-06-25T09:23:59.269Z,77.60
2018-06-25T09:28:55.494Z,76.80
2018-06-25T09:33:50.202Z,76.10
2018-06-25T09:38:44.856Z,74.30
2018-06-25T09:43:39.534Z,73.40
2018-06-25T09:48:34.471Z,72.60
2018-06-25T09:53:29.270Z,71.70
2018-06-25T09:58:23.856Z,72.40
2018-06-25T10:03:18.455Z,71.00
2018-06-25T10:13:07.178Z,74.70
2018-06-25T10:18:01.751Z,74.20
2018-06-25T10:22:56.354Z,71.30
2018-06-25T10:27:51.163Z,70.30
2018-06-25T10:32:46.380Z,67.00
2018-06-25T10:37:43.497Z,64.80
2018-06-25T10:42:38.299Z,64.20
2018-06-25T10:47:32.732Z,69.40
2018-06-25T10:52:27.288Z,71.10
2018-06-25T10:57:22.035Z,69.60
2018-06-25T11:02:16.850Z,70.10
2018-06-25T11:07:13.311Z,69.30
2018-06-25T11:17:02.754Z,70.30
2018-06-25T11:22:01.604Z,69.80
2018-06-25T11:31:55.313Z,67.00
2018-06-25T11:36:50.835Z,67.50
2018-06-25T11:41:45.428Z,67.70
2018-06-25T11:46:41.803Z,67.40
2018-06-25T11:51:36.539Z,68.20
2018-06-25T11:56:31.102Z,65.00
2018-06-25T12:01:25.684Z,62.70
2018-06-25T12:06:20.297Z,62.70
2018-06-25T12:11:14.877Z,63.30
2018-06-25T12:16:09.605Z,61.80
2018-06-25T12:21:04.385Z,61.60
2018-06-25T12:25:59.214Z,60.30
2018-06-25T12:30:54.321Z,62.80
2018-06-25T12:35:48.844Z,63.40
2018-06-25T12:40:43.994Z,59.30
2018-06-25T12:45:41.070Z,61.20
2018-06-25T12:50:35.869Z,61.50
2018-06-25T12:55:30.765Z,60.90
2018-06-25T13:00:27.576Z,59.90
2018-06-25T13:05:31.779Z,58.20
2018-06-25T13:10:27.013Z,58.10
2018-06-25T13:15:21.763Z,56.80
2018-06-25T13:20:19.634Z,56.40
2018-06-25T13:25:14.509Z,54.90
2018-06-25T13:30:10.618Z,56.50
2018-06-25T13:35:23.964Z,55.00
2018-06-25T13:40:18.674Z,54.10
2018-06-25T13:45:13.540Z,55.20
2018-06-25T13:50:08.578Z,56.20
2018-06-25T13:55:07.244Z,56.80
2018-06-25T14:00:02.429Z,55.50
2018-06-25T14:04:57.057Z,56.40
2018-06-25T14:09:51.738Z,55.90
2018-06-25T14:14:46.390Z,55.10
2018-06-25T14:19:41.133Z,53.30
2018-06-25T14:24:43.940Z,51.90
2018-06-25T14:29:39.031Z,54.90
2018-06-25T14:34:33.687Z,56.40
2018-06-25T14:39:28.514Z,56.40
2018-06-25T14:44:23.137Z,55.60
2018-06-25T14:49:18.268Z,54.10
2018-06-25T14:54:35.757Z,55.90
2018-06-25T14:59:30.352Z,57.70
2018-06-25T15:04:25.221Z,58.20
2018-06-25T15:09:19.852Z,57.70
2018-06-25T15:14:14.488Z,57.90
2018-06-25T15:19:09.329Z,58.00
2018-06-25T15:24:04.574Z,53.70
2018-06-25T15:28:59.409Z,52.30
2018-06-25T15:33:54.135Z,53.40
2018-06-25T15:38:48.787Z,53.50
2018-06-25T15:43:43.471Z,51.70
2018-06-25T15:53:32.480Z,52.40
2018-06-25T15:58:27.094Z,53.60
2018-06-25T16:03:21.669Z,54.10
2018-06-25T16:08:16.262Z,54.30
2018-06-25T16:13:10.966Z,54.80
2018-06-25T16:18:05.624Z,55.30
2018-06-25T16:23:00.283Z,55.80
2018-06-25T16:27:54.903Z,54.20
2018-06-25T16:32:49.457Z,54.60
2018-06-25T16:37:45.233Z,54.90
2018-06-25T16:42:40.157Z,56.00
2018-06-25T16:47:34.955Z,56.50
2018-06-25T16:52:29.707Z,56.80
2018-06-25T16:57:24.242Z,57.20
2018-06-25T17:02:18.837Z,56.80
2018-06-25T17:07:13.423Z,57.30
2018-06-25T17:12:08.061Z,57.10
2018-06-25T17:17:02.659Z,57.10
2018-06-25T17:21:57.294Z,57.30
2018-06-25T17:26:51.913Z,57.90
2018-06-25T17:31:46.476Z,57.40
2018-06-25T17:36:41.018Z,56.60
2018-06-25T17:41:35.601Z,57.70
2018-06-25T17:46:30.159Z,56.60
2018-06-25T17:51:24.765Z,57.30
2018-06-25T17:56:19.347Z,58.00
2018-06-25T18:01:14.027Z,57.50
2018-06-25T18:06:08.534Z,57.40
2018-06-25T18:12:32.622Z,58.00
2018-06-25T18:17:27.285Z,57.90
2018-06-25T18:22:21.877Z,58.50
2018-06-25T18:32:10.669Z,60.70
2018-06-25T18:37:05.251Z,61.00
2018-06-25T18:41:59.837Z,61.80
2018-06-25T18:46:54.418Z,62.30
2018-06-25T18:51:48.964Z,63.00
2018-06-25T18:56:43.587Z,64.80
2018-06-25T19:01:38.207Z,65.20
2018-06-25T19:06:32.815Z,65.90
2018-06-25T19:11:27.452Z,66.30
2018-06-25T19:16:22.118Z,64.00
2018-06-25T19:26:42.809Z,64.00
2018-06-25T19:31:37.410Z,66.70
2018-06-25T19:36:32.057Z,67.80
2018-06-25T19:41:26.637Z,68.10
2018-06-25T19:46:21.310Z,68.70
2018-06-25T19:51:15.998Z,68.70
2018-06-25T19:56:10.551Z,68.60
2018-06-25T20:01:05.164Z,68.10
2018-06-25T20:05:59.775Z,68.20
2018-06-25T20:10:54.278Z,69.10
2018-06-25T20:15:48.945Z,69.80
2018-06-25T20:20:43.531Z,71.30
2018-06-25T20:25:38.105Z,71.70
2018-06-25T20:35:26.970Z,72.00
2018-06-25T20:40:21.545Z,72.20
2018-06-25T20:45:16.125Z,72.60
2018-06-25T20:50:10.691Z,73.00
2018-06-25T20:55:05.649Z,73.00
2018-06-25T21:00:00.333Z,73.80
2018-06-25T21:04:55.023Z,73.60
2018-06-25T21:09:49.562Z,73.60
2018-06-25T21:14:44.096Z,73.80
2018-06-25T21:19:39.209Z,73.90
2018-06-25T21:24:33.734Z,72.90
2018-06-25T21:29:28.336Z,72.10
2018-06-25T21:34:22.905Z,72.30
2018-06-25T21:39:17.432Z,72.00
2018-06-25T21:44:12.021Z,72.70
2018-06-25T21:50:36.121Z,73.90
2018-06-25T21:55:30.672Z,74.40
2018-06-25T22:00:31.606Z,75.80
2018-06-25T22:05:26.116Z,76.70
2018-06-25T22:15:14.991Z,76.40
2018-06-25T22:20:09.652Z,77.80
2018-06-25T22:25:04.273Z,78.70
2018-06-25T22:29:58.925Z,79.70
2018-06-25T22:34:53.448Z,80.60
2018-06-25T22:39:48.048Z,82.00
2018-06-25T22:44:42.618Z,82.60
2018-06-25T22:49:37.293Z,84.00
2018-06-25T22:54:31.865Z,84.30
2018-06-25T22:59:26.410Z,84.50
2018-06-25T23:04:20.978Z,84.90
2018-06-25T23:09:15.536Z,85.50
2018-06-25T23:14:10.062Z,85.20
2018-06-25T23:19:04.583Z,85.70
2018-06-25T23:23:59.122Z,85.80
2018-06-25T23:28:53.710Z,86.60
2018-06-25T23:33:48.223Z,85.40
2018-06-25T23:38:42.751Z,84.70
2018-06-25T23:43:37.348Z,84.60
2018-06-25T23:48:31.894Z,85.30
2018-06-25T23:53:26.486Z,85.40
2018-06-25T23:58:21.361Z,86.50
